Terminal Aerodrome Forecast
Issued by NWS Wilmington, NC

Home | Current Version | Previous Version | Text Only | Print | Product List | Glossary On
Versions: 1 2 3 4 5 6 7 8 9 10 11 12 13 14 15 16 17 18 19 20 21 22 23
000
FTUS42 KILM 051120
TAFFLO
TAF
KFLO 051120Z 0512/0612 29004KT P6SM SCT060
     FM051300 31010KT P6SM SCT070
     FM051700 31012G20KT P6SM VCSH BKN050
      TEMPO 0519/0523 6SM -SHRA BKN040
     FM060400 32008KT 6SM -SHRA BKN030=

USA.gov is the U.S. government's official web portal to all federal, state and local government web resources and services.